Time;durP1;ratioP1;P1;durP2;ratioP2;P2;SDS_P1;SDS_P2;PMS_P1;PMS_P2;Temp;Humidity;BMP_temperature;BMP_pressure;BME280_temperature;BME280_humidity;BME280_pressure;Samples;Min_cycle;Max_cycle;Signal;HPM_P1;HPM_P2
2023/01/05 00:01:34;;;;;;;24.77;16.70;;;;;;;10.09;55.81;102168.38;5050136;28;20380;-74
2023/01/05 00:03:59;;;;;;;20.07;13.37;;;;;;;9.97;55.80;102177.38;5050188;28;20453;-74
2023/01/05 00:06:25;;;;;;;16.87;11.77;;;;;;;9.82;56.08;102176.88;5050805;28;20380;-74
2023/01/05 00:08:51;;;;;;;16.73;11.77;;;;;;;9.55;57.13;102171.09;5050187;28;20419;-74
2023/01/05 00:22:30;;;;;;;21.27;13.05;;;;;;;9.51;56.60;102150.31;5050855;28;20388;-74
2023/01/05 00:25:01;;;;;;;17.30;10.05;;;;;;;9.52;56.69;102151.97;5050222;28;20377;-75
2023/01/05 00:27:27;;;;;;;15.43;10.13;;;;;;;9.41;56.46;102144.91;5050369;28;20364;-74
2023/01/05 00:29:53;;;;;;;14.30;9.23;;;;;;;9.30;56.57;102135.22;5050078;28;20373;-74
2023/01/05 00:32:19;;;;;;;13.33;9.20;;;;;;;9.36;56.81;102137.38;5050443;28;20798;-74
2023/01/05 00:34:44;;;;;;;16.00;9.70;;;;;;;9.27;57.04;102130.16;5049799;28;20925;-74
2023/01/05 00:37:10;;;;;;;14.65;9.30;;;;;;;9.17;57.11;102126.63;5050208;28;20970;-74
2023/01/05 00:39:35;;;;;;;12.23;8.30;;;;;;;9.07;57.26;102138.91;5049976;28;20467;-74
2023/01/05 00:42:01;;;;;;;14.07;9.23;;;;;;;8.90;58.54;102143.78;5049466;28;20930;-74
2023/01/05 00:44:26;;;;;;;15.60;9.98;;;;;;;8.91;58.02;102147.25;5048956;28;20796;-74
2023/01/05 00:46:51;;;;;;;13.80;8.57;;;;;;;8.91;58.04;102137.53;5048982;28;20499;-74
2023/01/05 00:49:17;;;;;;;11.37;8.10;;;;;;;8.88;57.86;102135.13;5049789;28;20456;-74
2023/01/05 00:51:42;;;;;;;12.18;8.27;;;;;;;8.86;58.27;102139.69;5049784;28;20381;-75
2023/01/05 00:54:08;;;;;;;12.50;7.90;;;;;;;8.73;58.41;102133.69;5050293;28;20376;-74
2023/01/05 00:56:33;;;;;;;11.40;7.88;;;;;;;8.64;58.69;102127.34;5048278;28;20377;-74
2023/01/05 00:58:59;;;;;;;12.73;8.13;;;;;;;8.63;58.64;102138.06;5048891;28;20385;-74
2023/01/05 01:01:24;;;;;;;13.10;8.67;;;;;;;8.49;58.93;102142.63;5048364;28;20393;-74
2023/01/05 01:03:50;;;;;;;13.63;8.80;;;;;;;8.51;59.02;102140.69;5049582;28;20845;-75
2023/01/05 01:06:15;;;;;;;13.10;8.75;;;;;;;8.42;59.20;102128.22;5050150;28;20380;-75
2023/01/05 01:08:41;;;;;;;13.97;8.50;;;;;;;8.46;59.32;102128.81;5049448;28;20853;-75
2023/01/05 01:11:08;;;;;;;13.43;8.53;;;;;;;8.41;58.92;102123.88;5052968;28;20737;-74
2023/01/05 01:13:37;;;;;;;12.23;8.65;;;;;;;8.42;59.00;102115.81;5053927;28;20449;-74
2023/01/05 01:16:08;;;;;;;13.45;8.15;;;;;;;8.44;58.58;102106.94;5053319;28;20883;-74
2023/01/05 01:18:34;;;;;;;14.00;9.02;;;;;;;8.47;58.62;102107.56;5051349;28;20431;-75
2023/01/05 01:21:00;;;;;;;13.30;8.32;;;;;;;8.57;58.48;102091.78;5052710;28;20438;-75
2023/01/05 01:23:26;;;;;;;12.45;9.05;;;;;;;8.64;57.92;102090.34;5053419;28;20388;-75
2023/01/05 01:25:51;;;;;;;13.00;8.82;;;;;;;8.68;57.67;102083.00;5053361;28;20457;-74
2023/01/05 01:28:16;;;;;;;12.48;8.13;;;;;;;8.70;57.24;102076.63;5053489;28;20376;-75
2023/01/05 01:30:42;;;;;;;13.43;8.50;;;;;;;8.65;57.44;102064.75;5053304;28;20456;-75
2023/01/05 01:33:07;;;;;;;14.27;8.55;;;;;;;8.67;57.53;102066.31;5053179;28;20403;-75
2023/01/05 01:35:36;;;;;;;12.43;8.40;;;;;;;8.52;57.58;102057.81;5053360;28;20396;-74
2023/01/05 01:38:01;;;;;;;12.50;8.35;;;;;;;8.46;58.24;102039.78;5053040;28;20762;-74
2023/01/05 01:40:27;;;;;;;14.38;9.18;;;;;;;8.67;57.71;102034.56;5053452;28;20396;-74
2023/01/05 01:42:52;;;;;;;14.30;9.30;;;;;;;8.79;57.11;102014.25;5052981;28;20770;-75
2023/01/05 01:45:23;;;;;;;21.70;13.83;;;;;;;8.92;56.48;102011.41;5053452;28;20387;-75
2023/01/05 01:47:57;;;;;;;20.20;10.60;;;;;;;8.87;56.60;102003.03;5051766;28;20718;-74
2023/01/05 01:50:32;;;;;;;13.88;9.27;;;;;;;8.91;56.70;101993.88;5053197;28;20461;-74
2023/01/05 01:53:06;;;;;;;16.30;9.90;;;;;;;8.83;56.13;101991.03;5052862;28;20471;-75
2023/01/05 01:55:33;;;;;;;14.30;10.07;;;;;;;8.76;56.40;101986.25;5053163;28;20416;-74
2023/01/05 01:58:01;;;;;;;15.45;9.88;;;;;;;8.74;56.62;101995.28;5053127;28;20407;-75
2023/01/05 02:00:27;;;;;;;17.73;11.57;;;;;;;8.72;56.29;102002.50;5051749;28;20458;-75
2023/01/05 02:02:55;;;;;;;17.40;11.70;;;;;;;8.68;56.62;102003.69;5053011;28;20384;-75
2023/01/05 02:05:28;;;;;;;14.45;10.77;;;;;;;8.59;56.33;102008.78;5051946;28;20897;-75
2023/01/05 02:07:53;;;;;;;16.77;10.57;;;;;;;8.60;56.24;101997.22;5052832;28;20387;-75
2023/01/05 02:10:46;;;;;;;16.83;11.37;;;;;;;8.66;56.28;101982.69;5053057;28;20393;-75
2023/01/05 02:13:49;;;;;;;15.13;11.07;;;;;;;8.69;56.10;101971.84;5052760;28;20756;-74
2023/01/05 02:16:59;;;;;;;15.15;10.55;;;;;;;8.72;56.06;101971.59;5052666;28;20405;-74
2023/01/05 02:19:52;;;;;;;15.38;10.07;;;;;;;8.61;55.84;101967.19;5052397;28;20396;-75
2023/01/05 02:22:17;;;;;;;15.80;10.60;;;;;;;8.62;56.24;101962.75;5036401;28;20716;-74
2023/01/05 02:25:10;;;;;;;16.23;11.00;;;;;;;8.67;55.67;101971.13;5032746;28;20397;-75
2023/01/05 02:27:45;;;;;;;18.30;11.52;;;;;;;8.71;55.66;101961.97;5032551;28;20370;-75
2023/01/05 02:30:19;;;;;;;17.13;11.13;;;;;;;8.69;55.54;101955.16;5047664;28;20890;-74
2023/01/05 02:33:10;;;;;;;15.77;10.93;;;;;;;8.66;55.55;101960.69;5032447;28;20836;-74
2023/01/05 02:35:54;;;;;;;15.93;11.27;;;;;;;8.53;55.94;101950.28;5032291;28;20411;-74
2023/01/05 02:38:22;;;;;;;16.70;11.35;;;;;;;8.50;55.82;101947.88;5032281;28;20905;-75
2023/01/05 02:40:51;;;;;;;16.60;11.27;;;;;;;8.38;55.88;101947.91;5032285;28;20401;-75
2023/01/05 02:43:19;;;;;;;20.30;12.73;;;;;;;8.31;56.29;101967.03;5031354;28;20867;-75
2023/01/05 02:45:45;;;;;;;18.27;12.75;;;;;;;8.15;56.47;101952.41;5031648;28;20932;-75
2023/01/05 02:48:11;;;;;;;18.45;12.68;;;;;;;8.18;56.50;101960.09;5032552;28;20461;-75
2023/01/05 02:50:46;;;;;;;19.27;12.97;;;;;;;8.09;56.71;101960.84;5032073;28;20473;-74
2023/01/05 02:53:17;;;;;;;16.48;11.30;;;;;;;7.86;56.75;101967.94;5032106;28;20869;-74
2023/01/05 02:55:50;;;;;;;21.45;13.80;;;;;;;7.46;57.96;101971.91;5047761;28;20383;-75
2023/01/05 02:58:30;;;;;;;18.20;12.70;;;;;;;7.18;58.86;101964.41;5032013;28;20394;-75
2023/01/05 03:01:01;;;;;;;16.23;12.35;;;;;;;7.12;59.22;101954.34;5031957;28;20779;-75
2023/01/05 03:03:53;;;;;;;18.63;13.25;;;;;;;7.22;58.80;101958.81;5031871;28;20385;-75
2023/01/05 03:06:35;;;;;;;20.25;12.20;;;;;;;7.14;58.96;101961.19;5032188;28;20441;-74
2023/01/05 03:09:03;;;;;;;17.57;11.63;;;;;;;7.11;59.15;101957.94;5031786;28;20871;-74
2023/01/05 03:14:47;;;;;;;23.58;21.00;;;;;;;7.46;57.65;101926.22;5031395;28;20397;-74
2023/01/05 03:17:18;;;;;;;21.48;16.02;;;;;;;7.53;57.39;101927.41;5011957;28;20506;-75
2023/01/05 03:19:46;;;;;;;42.72;38.80;;;;;;;7.60;57.47;101923.34;5010938;28;20384;-74
2023/01/05 03:36:48;;;;;;;20.50;14.37;;;;;;;7.47;57.08;101915.53;5011644;28;20415;-74
2023/01/05 03:39:15;;;;;;;23.90;15.38;;;;;;;7.57;56.75;101920.09;5011599;28;20423;-74
2023/01/05 03:41:41;;;;;;;21.15;14.13;;;;;;;7.53;56.87;101918.66;5010942;28;20380;-74
2023/01/05 03:44:07;;;;;;;26.00;15.77;;;;;;;7.43;56.79;101915.88;5011055;28;20395;-74
2023/01/05 03:46:33;;;;;;;23.05;15.15;;;;;;;7.24;57.00;101917.31;5011362;28;20745;-74
2023/01/05 03:48:58;;;;;;;23.73;15.80;;;;;;;7.13;57.90;101911.19;5026845;28;20482;-74
2023/01/05 03:51:24;;;;;;;25.90;16.63;;;;;;;7.13;58.13;101919.09;5011327;28;20912;-75
2023/01/05 03:53:49;;;;;;;24.30;15.90;;;;;;;7.18;58.21;101901.97;5011272;28;20729;-75
2023/01/05 03:56:15;;;;;;;24.70;17.03;;;;;;;7.26;57.70;101898.75;5010998;28;20383;-74
2023/01/05 03:58:40;;;;;;;34.50;28.50;;;;;;;7.30;57.44;101889.63;5010920;28;20408;-74
2023/01/05 04:01:07;;;;;;;34.13;23.17;;;;;;;7.20;57.37;101888.66;5011477;28;20838;-74
2023/01/05 04:03:33;;;;;;;32.13;21.77;;;;;;;7.22;57.71;101890.25;5017253;28;20376;-74
2023/01/05 04:05:59;;;;;;;29.08;17.67;;;;;;;7.24;57.12;101880.41;5017064;28;20724;-74
2023/01/05 04:08:24;;;;;;;58.83;52.78;;;;;;;7.27;57.54;101866.13;5017197;28;20387;-74
2023/01/05 04:10:53;;;;;;;31.13;19.17;;;;;;;7.24;57.41;101858.47;5016602;28;20384;-74
2023/01/05 04:13:19;;;;;;;27.73;19.00;;;;;;;7.29;57.00;101861.56;5042674;28;20416;-74
2023/01/05 04:15:45;;;;;;;41.83;37.28;;;;;;;7.25;57.36;101854.88;5048205;28;20412;-74
2023/01/05 04:18:10;;;;;;;28.90;19.42;;;;;;;7.17;57.13;101849.38;5055916;28;20453;-74
2023/01/05 04:20:35;;;;;;;30.53;20.63;;;;;;;7.16;57.32;101856.41;5050916;28;20706;-75
2023/01/05 04:23:01;;;;;;;28.17;18.00;;;;;;;7.20;57.28;101854.38;5050957;28;20364;-74
2023/01/05 04:25:26;;;;;;;40.85;36.45;;;;;;;7.27;57.43;101845.03;5050470;28;20368;-75
2023/01/05 04:27:52;;;;;;;30.10;17.17;;;;;;;7.16;57.55;101832.69;5050653;28;20441;-75
2023/01/05 04:30:18;;;;;;;41.10;33.53;;;;;;;7.08;57.59;101838.56;5050474;28;20389;-74
2023/01/05 04:32:43;;;;;;;31.83;25.05;;;;;;;7.12;57.44;101838.34;5049947;28;20776;-74
2023/01/05 04:35:09;;;;;;;26.53;16.87;;;;;;;7.04;57.46;101833.63;5050025;28;20388;-74
2023/01/05 04:37:34;;;;;;;23.80;16.02;;;;;;;6.94;57.57;101844.06;5049561;28;20414;-75
2023/01/05 04:39:59;;;;;;;304.97;166.97;;;;;;;6.83;57.79;101842.25;5049111;28;20926;-74
2023/01/05 04:42:25;;;;;;;58.97;34.73;;;;;;;6.69;58.54;101847.75;5050344;28;20808;-74
2023/01/05 04:44:50;;;;;;;58.47;36.20;;;;;;;6.82;58.49;101839.72;5051708;28;20400;-76
2023/01/05 04:47:16;;;;;;;43.40;29.53;;;;;;;6.99;57.72;101835.81;5053907;28;20441;-76
2023/01/05 04:49:41;;;;;;;34.07;22.87;;;;;;;7.07;57.48;101818.41;5051807;28;20730;-74
2023/01/05 04:52:07;;;;;;;69.10;56.73;;;;;;;7.12;57.19;101820.69;5053261;28;20384;-74
2023/01/05 04:54:33;;;;;;;79.75;68.20;;;;;;;7.15;56.85;101822.25;5052752;28;20442;-74
2023/01/05 04:56:58;;;;;;;51.78;33.40;;;;;;;7.08;57.33;101816.63;5053218;28;20420;-75
2023/01/05 04:59:24;;;;;;;50.25;36.72;;;;;;;7.02;57.18;101817.09;5052786;28;20393;-74
2023/01/05 05:01:49;;;;;;;47.87;34.13;;;;;;;7.00;57.31;101804.03;5052843;28;20388;-74
2023/01/05 05:04:15;;;;;;;47.23;32.50;;;;;;;7.05;56.61;101807.16;5069023;28;20407;-74
2023/01/05 05:06:40;;;;;;;45.65;32.60;;;;;;;7.07;56.38;101807.88;5053129;28;20869;-74
2023/01/05 05:09:06;;;;;;;44.83;28.13;;;;;;;6.97;56.72;101817.47;5052664;28;20454;-74
2023/01/05 05:11:31;;;;;;;46.37;29.37;;;;;;;6.82;57.12;101816.00;5053388;28;20466;-74
2023/01/05 05:13:57;;;;;;;53.47;35.57;;;;;;;6.82;57.02;101827.38;5049792;28;20495;-74
2023/01/05 05:16:22;;;;;;;54.03;37.78;;;;;;;6.77;57.35;101813.75;5051921;28;20761;-74
2023/01/05 05:18:47;;;;;;;52.33;36.33;;;;;;;6.63;57.54;101817.44;5052645;28;20412;-73
2023/01/05 05:21:13;;;;;;;46.40;32.70;;;;;;;6.68;57.36;101812.66;5051212;28;20458;-73
2023/01/05 05:23:38;;;;;;;47.72;34.92;;;;;;;6.74;57.12;101811.34;5052868;28;20471;-74
2023/01/05 05:26:04;;;;;;;51.33;38.43;;;;;;;6.82;57.07;101805.47;5053264;28;20726;-74
2023/01/05 05:28:29;;;;;;;50.10;37.13;;;;;;;6.81;56.71;101794.09;5052899;28;20376;-75
2023/01/05 05:30:55;;;;;;;91.57;82.03;;;;;;;6.81;56.63;101796.72;5045496;28;20427;-73
2023/01/05 05:33:22;;;;;;;50.90;35.25;;;;;;;6.76;56.62;101798.88;5052856;28;20479;-74
2023/01/05 05:35:48;;;;;;;53.15;42.30;;;;;;;6.74;56.54;101800.81;5053321;28;20507;-74
2023/01/05 05:38:13;;;;;;;49.40;31.37;;;;;;;6.64;56.88;101790.09;5051250;28;20821;-74
2023/01/05 05:40:39;;;;;;;51.28;31.85;;;;;;;6.52;57.14;101791.06;5053857;28;20393;-74
2023/01/05 05:43:05;;;;;;;46.88;29.33;;;;;;;6.54;57.23;101783.88;5052626;28;20392;-74
2023/01/05 05:45:30;;;;;;;40.13;27.98;;;;;;;6.57;56.79;101770.50;5052542;28;20384;-74
2023/01/05 05:47:56;;;;;;;61.80;33.57;;;;;;;6.51;56.83;101765.69;5053191;28;20476;-74
2023/01/05 05:50:22;;;;;;;52.60;32.92;;;;;;;6.45;57.55;101760.88;5052035;28;20479;-74
2023/01/05 05:52:47;;;;;;;50.00;32.20;;;;;;;6.45;57.43;101772.25;5045692;28;20488;-74
2023/01/05 05:55:13;;;;;;;48.97;30.27;;;;;;;6.43;57.57;101761.00;5050987;28;20790;-75
2023/01/05 05:57:38;;;;;;;52.70;31.73;;;;;;;6.22;57.90;101755.56;5067214;28;20422;-75
2023/01/05 06:00:04;;;;;;;47.67;31.55;;;;;;;6.23;58.10;101769.56;5051565;28;20424;-75
2023/01/05 06:02:30;;;;;;;57.92;37.40;;;;;;;6.06;58.14;101766.41;5051811;28;20396;-75
2023/01/05 06:04:55;;;;;;;59.88;36.95;;;;;;;5.94;58.19;101762.88;5052698;28;20412;-74
2023/01/05 06:07:20;;;;;;;69.43;38.17;;;;;;;5.88;58.19;101749.31;5050776;28;20384;-74
2023/01/05 06:09:46;;;;;;;49.37;28.37;;;;;;;5.84;58.81;101746.06;5052381;28;20408;-74
2023/01/05 06:12:11;;;;;;;40.90;21.50;;;;;;;5.84;58.96;101742.63;5050701;28;20384;-74
2023/01/05 06:14:37;;;;;;;36.17;20.33;;;;;;;5.90;58.29;101750.88;5051281;28;20384;-73
2023/01/05 06:17:02;;;;;;;37.73;24.37;;;;;;;5.98;58.55;101746.84;5046671;28;20441;-75
2023/01/05 06:19:28;;;;;;;52.35;20.90;;;;;;;6.04;58.34;101751.69;5064896;28;20405;-75
2023/01/05 06:21:53;;;;;;;33.55;21.77;;;;;;;6.02;58.29;101743.06;5051640;28;20372;-75
2023/01/05 06:24:19;;;;;;;40.53;22.83;;;;;;;6.05;58.24;101740.19;5051733;28;20388;-75
2023/01/05 06:26:44;;;;;;;44.10;23.83;;;;;;;6.03;58.77;101736.84;5053028;28;20460;-75
2023/01/05 06:29:10;;;;;;;44.20;23.87;;;;;;;6.05;58.73;101745.44;5052063;28;20389;-74
2023/01/05 06:31:36;;;;;;;31.55;17.70;;;;;;;6.00;58.50;101739.72;5051568;28;20849;-75
2023/01/05 06:34:01;;;;;;;36.23;19.43;;;;;;;5.96;58.97;101731.22;5051779;28;20404;-74
2023/01/05 06:36:27;;;;;;;39.67;22.70;;;;;;;5.84;59.09;101739.97;5067303;28;20392;-74
2023/01/05 06:38:52;;;;;;;42.40;22.13;;;;;;;5.72;59.30;101741.72;5051683;28;20911;-76
2023/01/05 06:41:18;;;;;;;55.77;26.40;;;;;;;5.59;59.35;101749.66;5052440;28;20409;-77
2023/01/05 06:43:43;;;;;;;42.50;21.80;;;;;;;5.36;60.42;101744.28;5052411;28;20381;-75
2023/01/05 06:46:09;;;;;;;49.30;23.27;;;;;;;5.19;60.86;101752.53;5040026;28;20779;-75
2023/01/05 06:48:34;;;;;;;39.23;21.17;;;;;;;5.19;60.77;101752.53;5051295;28;20369;-75
2023/01/05 06:51:00;;;;;;;45.50;21.50;;;;;;;5.26;60.29;101747.69;5051617;28;20708;-74
2023/01/05 06:53:25;;;;;;;38.05;18.77;;;;;;;5.36;60.25;101735.56;5052176;28;20385;-75
2023/01/05 06:55:50;;;;;;;37.30;18.77;;;;;;;5.49;59.50;101733.72;5051808;28;20385;-74
2023/01/05 06:58:16;;;;;;;28.97;16.53;;;;;;;5.60;59.73;101730.31;5051907;28;20481;-74
2023/01/05 07:00:41;;;;;;;31.42;17.45;;;;;;;5.66;59.19;101726.41;5051619;28;20745;-74
2023/01/05 07:03:12;;;;;;;35.00;16.10;;;;;;;5.63;59.67;101716.09;5051729;28;20387;-74
2023/01/05 07:05:37;;;;;;;28.00;14.93;;;;;;;5.73;59.51;101719.72;5051569;28;20845;-74
2023/01/05 07:08:03;;;;;;;27.65;15.07;;;;;;;5.77;60.02;101713.28;5051001;28;20395;-74
2023/01/05 07:10:29;;;;;;;26.33;14.37;;;;;;;5.78;59.78;101703.59;5051259;28;20483;-74
2023/01/05 07:12:54;;;;;;;26.02;14.55;;;;;;;5.85;59.62;101700.41;5051078;28;20380;-77
2023/01/05 07:15:19;;;;;;;35.90;19.63;;;;;;;5.88;59.74;101697.53;5051285;28;20431;-75
2023/01/05 07:17:45;;;;;;;33.97;17.73;;;;;;;5.91;59.57;101701.72;5050630;28;20423;-75
2023/01/05 07:20:10;;;;;;;28.57;14.77;;;;;;;6.01;59.99;101696.63;5050959;28;20556;-75
2023/01/05 07:22:36;;;;;;;25.83;15.73;;;;;;;6.00;59.73;101682.66;5050537;28;20825;-76
2023/01/05 07:25:02;;;;;;;28.10;17.47;;;;;;;6.12;59.72;101680.84;5049303;28;20396;-75
2023/01/05 07:27:28;;;;;;;32.60;20.35;;;;;;;6.26;59.39;101679.81;5049921;28;20849;-73
2023/01/05 07:29:53;;;;;;;78.20;51.77;;;;;;;6.25;59.08;101680.78;5050874;28;20446;-75
2023/01/05 07:32:19;;;;;;;35.67;24.93;;;;;;;6.19;59.14;101674.16;5050526;28;20380;-75
2023/01/05 07:34:44;;;;;;;34.70;24.58;;;;;;;6.30;59.61;101665.44;5049574;28;20482;-74
2023/01/05 07:37:10;;;;;;;35.78;23.30;;;;;;;6.42;59.36;101671.56;5050147;28;20452;-75
2023/01/05 07:39:35;;;;;;;33.03;22.43;;;;;;;6.41;59.75;101672.50;5050693;28;20413;-74
2023/01/05 07:42:01;;;;;;;29.23;18.67;;;;;;;6.35;59.84;101663.28;5049096;28;20757;-75
2023/01/05 07:44:26;;;;;;;40.83;25.83;;;;;;;6.26;60.70;101677.19;5050677;28;20388;-74
2023/01/05 07:46:52;;;;;;;70.18;37.22;;;;;;;6.20;60.41;101677.66;5050525;28;20396;-75
2023/01/05 07:49:18;;;;;;;79.82;44.65;;;;;;;6.08;60.15;101679.41;5049921;28;20450;-75
2023/01/05 07:51:43;;;;;;;80.32;41.15;;;;;;;5.87;60.51;101663.41;5051292;28;20381;-74
2023/01/05 07:54:09;;;;;;;75.50;39.13;;;;;;;5.84;60.44;101668.94;5050089;28;20402;-75
2023/01/05 07:56:34;;;;;;;65.80;37.67;;;;;;;5.73;60.25;101665.31;5051620;28;20468;-75
2023/01/05 07:59:00;;;;;;;74.18;37.53;;;;;;;5.69;60.46;101658.63;5049704;28;20384;-74
2023/01/05 08:01:25;;;;;;;64.80;35.92;;;;;;;5.54;60.71;101663.19;5050410;28;20388;-74
2023/01/05 08:03:50;;;;;;;79.53;41.57;;;;;;;5.69;60.71;101652.50;5050673;28;20388;-75
2023/01/05 08:06:18;;;;;;;65.10;34.30;;;;;;;5.87;60.81;101658.16;5051218;28;20391;-75
2023/01/05 08:08:44;;;;;;;47.53;28.13;;;;;;;5.94;60.67;101664.63;5051109;28;20434;-74
2023/01/05 08:11:14;;;;;;;39.10;21.83;;;;;;;5.97;60.90;101664.44;5051215;28;20456;-75
2023/01/05 08:13:58;;;;;;;32.22;20.88;;;;;;;6.00;60.40;101651.06;5051325;28;20722;-76
2023/01/05 08:16:26;;;;;;;34.78;21.63;;;;;;;6.06;61.04;101645.31;5049972;28;20412;-75
2023/01/05 08:18:52;;;;;;;33.90;22.17;;;;;;;6.11;61.17;101644.97;5048334;28;20416;-75
2023/01/05 08:21:17;;;;;;;32.28;21.25;;;;;;;6.21;61.35;101653.00;5049881;28;20703;-74
2023/01/05 08:23:44;;;;;;;32.35;22.50;;;;;;;6.34;61.11;101650.25;5050791;28;20395;-74
2023/01/05 08:26:18;;;;;;;34.42;21.58;;;;;;;6.40;61.10;101645.34;5050865;28;20386;-74
2023/01/05 08:28:44;;;;;;;27.02;19.45;;;;;;;6.56;61.10;101641.53;5050844;28;20435;-74
2023/01/05 08:31:13;;;;;;;23.70;16.60;;;;;;;6.60;61.28;101637.69;5050622;28;20389;-74
2023/01/05 08:33:39;;;;;;;21.30;14.98;;;;;;;6.57;61.91;101625.59;5050650;28;20857;-74
2023/01/05 08:36:09;;;;;;;29.63;18.10;;;;;;;6.65;62.02;101623.19;5050635;28;20391;-74
2023/01/05 08:38:35;;;;;;;27.23;16.42;;;;;;;6.91;61.34;101601.78;5050605;28;20412;-76
2023/01/05 08:41:00;;;;;;;27.42;17.02;;;;;;;7.09;61.20;101596.81;5050996;28;20381;-74
2023/01/05 08:43:26;;;;;;;21.60;15.50;;;;;;;7.25;60.98;101591.13;5050955;28;20385;-75
2023/01/05 08:45:51;;;;;;;23.37;16.37;;;;;;;7.40;60.90;101592.53;5050853;28;20386;-74
2023/01/05 08:48:16;;;;;;;27.53;16.43;;;;;;;7.54;60.75;101588.72;5050453;28;20891;-74
2023/01/05 08:50:42;;;;;;;21.20;14.77;;;;;;;7.58;60.46;101584.88;5050768;28;20389;-75
2023/01/05 08:53:07;;;;;;;17.60;12.70;;;;;;;7.70;60.65;101587.44;5051065;28;20376;-75
2023/01/05 08:55:33;;;;;;;18.47;12.70;;;;;;;7.76;60.48;101579.84;5049728;28;20393;-75
2023/01/05 08:57:58;;;;;;;19.58;12.82;;;;;;;7.78;60.38;101572.63;5050953;28;20408;-76
2023/01/05 09:00:24;;;;;;;19.00;13.70;;;;;;;7.84;60.36;101569.44;5049587;28;20792;-73
2023/01/05 09:02:49;;;;;;;19.17;13.83;;;;;;;7.98;60.58;101580.66;5041643;28;20400;-75
2023/01/05 09:05:15;;;;;;;19.88;13.85;;;;;;;8.12;60.01;101572.38;5050409;28;20847;-74
2023/01/05 09:07:41;;;;;;;25.27;15.02;;;;;;;8.37;60.08;101573.72;5065929;28;20405;-74
2023/01/05 09:10:07;;;;;;;22.23;15.67;;;;;;;8.56;59.78;101572.13;5050155;28;20731;-73
2023/01/05 09:12:37;;;;;;;22.98;14.93;;;;;;;8.67;59.82;101572.00;5050610;28;20387;-75
2023/01/05 09:15:05;;;;;;;18.77;14.30;;;;;;;8.69;59.62;101563.94;5065571;28;20417;-74
2023/01/05 09:17:32;;;;;;;17.00;13.13;;;;;;;8.82;60.01;101575.06;5048836;28;20412;-74
2023/01/05 09:19:57;;;;;;;23.40;14.73;;;;;;;8.95;59.84;101569.56;5049279;28;20384;-75
2023/01/05 09:22:23;;;;;;;27.47;18.30;;;;;;;9.17;59.17;101563.16;5050469;28;20749;-74
2023/01/05 09:24:48;;;;;;;23.70;16.70;;;;;;;9.33;59.37;101549.34;5050123;28;20387;-75
2023/01/05 09:27:14;;;;;;;20.00;14.70;;;;;;;9.41;59.22;101530.13;5050344;28;20691;-75
2023/01/05 09:29:39;;;;;;;24.43;16.30;;;;;;;9.52;58.68;101541.34;5050504;28;20474;-75
2023/01/05 09:32:05;;;;;;;26.95;18.08;;;;;;;9.83;59.63;101543.81;5053227;28;20461;-75
2023/01/05 09:34:31;;;;;;;30.65;20.52;;;;;;;10.16;58.78;101538.91;5053077;28;20460;-76
2023/01/05 09:36:56;;;;;;;40.38;28.15;;;;;;;10.24;57.48;101538.19;5053082;28;20420;-73
2023/01/05 09:39:22;;;;;;;44.45;30.35;;;;;;;10.20;57.59;101545.59;5053797;28;20823;-74
2023/01/05 09:41:52;;;;;;;45.10;32.20;;;;;;;10.10;57.63;101550.09;5053760;28;20381;-74
2023/01/05 09:44:29;;;;;;;45.90;32.40;;;;;;;10.09;57.48;101538.66;5053506;28;20376;-76
2023/01/05 09:46:59;;;;;;;45.40;31.52;;;;;;;10.20;57.96;101532.34;5053705;28;20857;-75
2023/01/05 09:49:27;;;;;;;38.17;27.55;;;;;;;10.33;57.40;101529.38;5053299;28;20845;-75
2023/01/05 09:52:08;;;;;;;43.95;29.23;;;;;;;10.43;57.10;101506.31;5053664;28;20384;-76
2023/01/05 09:54:34;;;;;;;38.38;28.58;;;;;;;10.45;57.18;101498.19;5053451;28;20461;-74
2023/01/05 09:57:00;;;;;;;37.03;28.02;;;;;;;10.49;57.40;101483.66;5053742;28;20412;-74
2023/01/05 09:59:33;;;;;;;44.10;30.10;;;;;;;10.54;57.23;101483.22;5051792;28;20364;-77
2023/01/05 10:02:03;;;;;;;40.05;28.88;;;;;;;10.54;57.44;101473.44;5053384;28;20370;-76
2023/01/05 10:04:32;;;;;;;33.85;24.75;;;;;;;10.62;57.32;101473.50;5053293;28;20451;-76
2023/01/05 10:07:04;;;;;;;34.20;23.80;;;;;;;10.71;57.07;101462.00;5053085;28;20387;-74
2023/01/05 10:09:34;;;;;;;30.88;21.65;;;;;;;10.67;57.17;101457.97;5052640;28;20380;-74
2023/01/05 10:15:06;;;;;;;29.33;21.67;;;;;;;10.76;56.69;101473.97;5052560;28;20773;-75
2023/01/05 10:17:38;;;;;;;28.92;21.02;;;;;;;10.74;56.72;101484.72;5053083;28;20461;-75
2023/01/05 10:20:14;;;;;;;34.17;20.38;;;;;;;10.70;56.92;101491.31;5052836;28;20373;-75
2023/01/05 10:23:17;;;;;;;24.98;17.02;;;;;;;10.67;57.12;101481.84;5053335;28;20875;-75
2023/01/05 10:25:57;;;;;;;21.83;15.07;;;;;;;10.66;57.27;101463.44;5053074;28;20469;-76
2023/01/05 10:28:51;;;;;;;23.10;15.18;;;;;;;10.80;57.33;101452.28;5052216;28;20404;-74
2023/01/05 10:31:38;;;;;;;18.98;14.07;;;;;;;10.97;57.02;101452.44;5052772;28;20723;-75
2023/01/05 10:34:19;;;;;;;21.50;14.02;;;;;;;11.04;56.90;101446.34;5052596;28;20454;-75
2023/01/05 10:36:50;;;;;;;17.25;12.95;;;;;;;11.14;56.99;101440.09;5051832;28;20384;-75
2023/01/05 10:39:15;;;;;;;17.80;11.40;;;;;;;11.13;56.87;101441.09;5052720;28;20377;-76
2023/01/05 10:41:41;;;;;;;18.40;13.07;;;;;;;11.07;56.64;101422.16;5053104;28;20381;-76
2023/01/05 10:44:22;;;;;;;15.95;12.27;;;;;;;11.16;56.66;101425.69;5051388;28;20373;-77
2023/01/05 10:46:48;;;;;;;16.95;12.52;;;;;;;11.33;56.52;101417.84;5053006;28;20975;-76
2023/01/05 10:49:20;;;;;;;14.87;11.17;;;;;;;11.49;56.21;101428.53;5052557;28;20419;-75
2023/01/05 10:51:48;;;;;;;28.60;21.60;;;;;;;11.50;56.14;101424.88;5052654;28;20764;-75
2023/01/05 10:54:31;;;;;;;18.55;12.88;;;;;;;11.65;55.89;101425.13;5051703;28;20405;-75
2023/01/05 10:57:31;;;;;;;16.37;13.37;;;;;;;11.72;55.63;101426.16;5051075;28;20412;-76
2023/01/05 10:59:57;;;;;;;24.25;14.73;;;;;;;11.92;55.55;101415.28;5051827;28;20418;-76
2023/01/05 11:02:25;;;;;;;21.13;14.57;;;;;;;12.03;55.42;101399.88;5052322;28;20387;-76
2023/01/05 11:04:52;;;;;;;21.17;15.00;;;;;;;12.13;55.04;101394.41;5052028;28;20472;-76
2023/01/05 11:07:18;;;;;;;23.38;15.75;;;;;;;12.13;54.72;101391.75;5052601;28;20408;-76
2023/01/05 11:09:46;;;;;;;25.77;17.27;;;;;;;12.34;54.71;101395.78;5052180;28;20486;-76
2023/01/05 11:12:19;;;;;;;22.85;16.30;;;;;;;12.38;54.14;101379.31;5052003;28;20439;-75
2023/01/05 11:14:51;;;;;;;21.73;14.20;;;;;;;12.42;53.70;101383.34;5052007;28;20416;-78
2023/01/05 11:17:21;;;;;;;32.05;23.73;;;;;;;12.53;53.93;101386.63;5052481;28;20401;-76
2023/01/05 11:19:50;;;;;;;29.80;20.13;;;;;;;12.65;53.64;101379.97;5051363;28;20377;-74
2023/01/05 11:22:37;;;;;;;28.08;20.35;;;;;;;12.78;53.08;101376.81;5052247;28;20442;-76
2023/01/05 11:25:28;;;;;;;22.33;14.83;;;;;;;12.86;53.07;101370.66;5051741;28;20384;-75
2023/01/05 11:28:04;;;;;;;28.30;20.07;;;;;;;12.97;52.30;101354.34;5053099;28;20845;-76
2023/01/05 11:30:32;;;;;;;21.75;15.63;;;;;;;12.99;52.91;101350.50;5051811;28;20476;-77
2023/01/05 11:33:00;;;;;;;20.45;15.43;;;;;;;13.09;53.12;101344.16;5051921;28;20385;-76
2023/01/05 11:35:28;;;;;;;55.83;39.80;;;;;;;13.15;53.57;101338.97;5055589;28;20380;-76
2023/01/05 11:37:56;;;;;;;73.00;53.70;;;;;;;13.27;53.30;101338.59;5057274;28;20405;-75
2023/01/05 11:40:26;;;;;;;16.50;11.80;;;;;;;13.35;52.14;101326.13;5059585;28;20446;-75
2023/01/05 11:42:52;;;;;;;51.67;40.57;;;;;;;13.44;52.83;101331.41;5060762;28;20387;-76
2023/01/05 11:45:24;;;;;;;35.13;26.07;;;;;;;13.51;52.08;101324.41;5058950;28;20385;-75
2023/01/05 11:47:55;;;;;;;18.00;10.77;;;;;;;13.58;50.01;101320.84;5054263;28;20778;-75
2023/01/05 11:50:27;;;;;;;26.85;19.30;;;;;;;13.73;51.61;101309.44;5052170;28;20397;-76
2023/01/05 11:52:57;;;;;;;21.65;15.60;;;;;;;13.86;51.08;101316.84;5051558;28;20445;-77
2023/01/05 11:55:32;;;;;;;21.80;16.52;;;;;;;13.87;51.15;101306.03;5050240;28;20396;-75